createdAt,value
2023-04-27T00:01:44.769Z,16.67
2023-04-27T00:04:14.437Z,15.38
2023-04-27T00:06:42.643Z,19.55
2023-04-27T00:09:10.080Z,15.18
2023-04-27T00:11:37.455Z,19.75
2023-04-27T00:14:04.783Z,18.85
2023-04-27T00:16:32.323Z,11.50
2023-04-27T00:18:59.576Z,16.50
2023-04-27T00:21:27.212Z,15.20
2023-04-27T00:23:54.802Z,21.25
2023-04-27T00:26:22.561Z,16.80
2023-04-27T00:28:51.729Z,16.70
2023-04-27T00:31:18.894Z,19.10
2023-04-27T00:33:46.170Z,21.67
2023-04-27T00:36:16.467Z,14.52
2023-04-27T00:38:44.066Z,15.10
2023-04-27T00:41:10.953Z,19.30
2023-04-27T00:43:44.174Z,18.13
2023-04-27T00:46:13.426Z,15.20
2023-04-27T00:48:41.936Z,21.30
2023-04-27T00:51:09.274Z,16.73
2023-04-27T00:53:39.183Z,20.40
2023-04-27T00:56:07.564Z,18.27
2023-04-27T00:58:35.125Z,15.40
2023-04-27T01:01:02.336Z,18.60
2023-04-27T01:03:31.617Z,20.60
2023-04-27T01:06:01.836Z,18.38
2023-04-27T01:08:29.905Z,17.20
2023-04-27T01:10:57.196Z,16.15
2023-04-27T01:13:24.976Z,21.30
2023-04-27T01:15:52.071Z,20.90
2023-04-27T01:18:20.014Z,17.17
2023-04-27T01:20:47.003Z,20.00
2023-04-27T01:23:17.105Z,17.85
2023-04-27T01:25:45.384Z,20.70
2023-04-27T01:28:12.890Z,22.90
2023-04-27T01:30:40.128Z,21.38
2023-04-27T01:33:07.680Z,23.73
2023-04-27T01:35:34.935Z,22.73
2023-04-27T01:38:02.721Z,13.93
2023-04-27T01:40:30.099Z,21.77
2023-04-27T01:42:57.440Z,17.95
2023-04-27T01:45:25.117Z,20.98
2023-04-27T01:47:53.625Z,19.15
2023-04-27T01:50:21.201Z,23.65
2023-04-27T01:52:49.083Z,25.65
2023-04-27T01:55:16.335Z,20.70
2023-04-27T01:57:43.837Z,22.38
2023-04-27T02:00:12.513Z,20.25
2023-04-27T02:02:51.356Z,21.35
2023-04-27T02:05:19.270Z,20.42
2023-04-27T02:07:47.493Z,18.60
2023-04-27T02:10:15.595Z,20.42
2023-04-27T02:12:42.942Z,20.42
2023-04-27T02:15:10.266Z,22.60
2023-04-27T02:17:39.018Z,17.60
2023-04-27T02:20:08.235Z,24.42
2023-04-27T02:22:35.955Z,22.05
2023-04-27T02:25:03.524Z,23.35
2023-04-27T02:27:31.106Z,18.33
2023-04-27T02:29:58.799Z,24.55
2023-04-27T02:32:27.470Z,21.92
2023-04-27T02:34:56.825Z,19.60
2023-04-27T02:37:25.224Z,24.10
2023-04-27T02:39:52.528Z,19.35
2023-04-27T02:42:19.877Z,17.75
2023-04-27T02:44:47.683Z,19.35
2023-04-27T02:47:14.801Z,25.08
2023-04-27T02:49:43.297Z,20.02
2023-04-27T02:52:10.557Z,24.70
2023-04-27T02:54:37.525Z,19.10
2023-04-27T02:57:04.944Z,23.70
2023-04-27T02:59:33.047Z,19.90
2023-04-27T03:02:00.497Z,20.88
2023-04-27T03:04:28.687Z,20.13
2023-04-27T03:06:56.543Z,23.23
2023-04-27T03:09:24.350Z,25.10
2023-04-27T03:11:51.932Z,22.17
2023-04-27T03:14:20.978Z,28.75
2023-04-27T03:16:48.278Z,19.92
2023-04-27T03:19:15.933Z,24.88
2023-04-27T03:21:43.442Z,21.38
2023-04-27T03:24:10.810Z,25.73
2023-04-27T03:26:38.027Z,22.88
2023-04-27T03:29:05.123Z,26.50
2023-04-27T03:31:32.419Z,20.13
2023-04-27T03:33:59.349Z,24.52
2023-04-27T03:36:27.174Z,20.50
2023-04-27T03:38:54.405Z,20.55
2023-04-27T03:41:22.187Z,19.08
2023-04-27T03:43:50.849Z,20.73
2023-04-27T03:46:18.605Z,23.40
2023-04-27T03:48:47.337Z,22.50
2023-04-27T03:51:15.222Z,25.60
2023-04-27T03:53:44.851Z,19.95
2023-04-27T03:56:12.235Z,24.10
2023-04-27T03:58:39.735Z,24.27
2023-04-27T04:01:16.711Z,19.90
2023-04-27T04:03:45.043Z,27.23
2023-04-27T04:06:12.988Z,22.77
2023-04-27T04:08:40.155Z,21.60
2023-04-27T04:11:07.472Z,17.60
2023-04-27T04:13:36.260Z,20.50
2023-04-27T04:16:09.299Z,18.20
2023-04-27T04:18:37.014Z,21.08
2023-04-27T04:21:05.551Z,21.88
2023-04-27T04:23:33.140Z,19.50
2023-04-27T04:26:02.203Z,21.45
2023-04-27T04:28:33.521Z,23.25
2023-04-27T04:31:01.477Z,29.33
2023-04-27T04:33:28.578Z,22.45
2023-04-27T04:35:56.432Z,24.25
2023-04-27T04:38:23.983Z,17.70
2023-04-27T04:40:52.985Z,18.45
2023-04-27T04:43:19.999Z,15.73
2023-04-27T04:45:48.380Z,25.23
2023-04-27T04:48:16.975Z,18.77
2023-04-27T04:50:46.557Z,24.40
2023-04-27T04:53:13.861Z,19.77
2023-04-27T04:55:42.691Z,21.20
2023-04-27T04:58:10.275Z,20.90
2023-04-27T05:00:38.267Z,31.05
2023-04-27T05:03:07.947Z,27.00
2023-04-27T05:05:35.747Z,20.58
2023-04-27T05:08:02.994Z,18.77
2023-04-27T05:10:30.854Z,20.10
2023-04-27T05:12:58.048Z,20.00
2023-04-27T05:15:25.872Z,17.30
2023-04-27T05:17:54.394Z,22.40
2023-04-27T05:20:22.195Z,22.02
2023-04-27T05:22:49.222Z,22.13
2023-04-27T05:25:17.148Z,21.58
2023-04-27T05:27:44.076Z,21.38
2023-04-27T05:30:12.508Z,19.48
2023-04-27T05:32:39.796Z,17.15
2023-04-27T05:35:07.529Z,23.52
2023-04-27T05:37:34.751Z,19.75
2023-04-27T05:40:02.163Z,20.00
2023-04-27T05:42:29.368Z,18.15
2023-04-27T05:44:57.228Z,22.08
2023-04-27T05:47:24.407Z,25.50
2023-04-27T05:49:55.624Z,17.50
2023-04-27T05:52:29.419Z,22.85
2023-04-27T05:54:58.722Z,19.23
2023-04-27T05:57:26.389Z,17.70
2023-04-27T05:59:54.058Z,22.52
2023-04-27T06:02:21.941Z,17.67
2023-04-27T06:04:49.367Z,19.40
2023-04-27T06:07:16.780Z,18.73
2023-04-27T06:09:44.408Z,13.88
2023-04-27T06:12:11.950Z,16.52
2023-04-27T06:14:39.391Z,24.42
2023-04-27T06:17:06.793Z,20.17
2023-04-27T06:19:34.038Z,25.63
2023-04-27T06:22:01.413Z,15.95
2023-04-27T06:24:29.026Z,19.33
2023-04-27T06:26:56.332Z,21.40
2023-04-27T06:29:24.066Z,15.60
2023-04-27T06:31:51.619Z,15.07
2023-04-27T06:34:19.269Z,23.65
2023-04-27T06:36:46.473Z,20.25
2023-04-27T06:39:14.356Z,14.93
2023-04-27T06:41:41.769Z,16.17
2023-04-27T06:44:19.617Z,17.80
2023-04-27T06:46:47.190Z,18.40
2023-04-27T06:49:14.963Z,16.13
2023-04-27T06:51:42.854Z,17.13
2023-04-27T06:54:10.347Z,13.00
2023-04-27T06:56:37.902Z,19.38
2023-04-27T06:59:05.281Z,17.90
2023-04-27T07:01:32.577Z,15.95
2023-04-27T07:04:00.346Z,13.45
2023-04-27T07:06:28.985Z,16.00
2023-04-27T07:08:56.777Z,18.02
2023-04-27T07:11:23.688Z,13.60
2023-04-27T07:13:51.450Z,14.18
2023-04-27T07:16:19.624Z,20.70
2023-04-27T07:18:47.364Z,13.75
2023-04-27T07:21:14.410Z,15.07
2023-04-27T07:23:42.988Z,17.45
2023-04-27T07:26:10.355Z,16.85
2023-04-27T07:28:39.816Z,14.32
2023-04-27T07:31:07.414Z,21.25
2023-04-27T07:33:35.587Z,15.80
2023-04-27T07:36:03.819Z,17.50
2023-04-27T07:38:31.874Z,14.32
2023-04-27T07:41:01.976Z,13.38
2023-04-27T07:43:29.899Z,22.98
2023-04-27T07:45:58.803Z,14.23
2023-04-27T07:48:28.773Z,13.50
2023-04-27T07:50:56.029Z,11.52
2023-04-27T07:53:24.133Z,14.32
2023-04-27T07:55:51.251Z,11.60
2023-04-27T07:58:20.002Z,13.80
2023-04-27T08:00:47.493Z,10.43
2023-04-27T08:03:14.999Z,12.05
2023-04-27T08:05:42.351Z,10.82
2023-04-27T08:08:10.278Z,10.90
2023-04-27T08:10:38.226Z,10.85
2023-04-27T08:13:05.704Z,11.40
2023-04-27T08:15:32.867Z,14.82
2023-04-27T08:18:00.437Z,16.55
2023-04-27T08:20:27.952Z,12.88
2023-04-27T08:22:55.356Z,13.48
2023-04-27T08:25:23.031Z,9.82
2023-04-27T08:27:50.440Z,11.52
2023-04-27T08:30:17.891Z,12.82
2023-04-27T08:32:45.994Z,10.95
2023-04-27T08:35:14.992Z,14.15
2023-04-27T08:37:42.512Z,11.15
2023-04-27T08:40:10.943Z,13.25
2023-04-27T08:42:41.896Z,11.27
2023-04-27T08:45:09.657Z,9.40
2023-04-27T08:47:43.208Z,11.57
2023-04-27T08:50:12.651Z,11.23
2023-04-27T08:52:40.288Z,13.38
2023-04-27T08:55:08.557Z,10.05
2023-04-27T08:57:36.494Z,9.23
2023-04-27T09:00:13.184Z,9.27
2023-04-27T09:02:48.301Z,8.60
2023-04-27T09:05:17.555Z,9.07
2023-04-27T09:08:08.405Z,9.48
2023-04-27T09:10:49.191Z,8.68
2023-04-27T09:13:17.470Z,7.93
2023-04-27T09:15:52.301Z,5.55
2023-04-27T09:18:22.057Z,9.85
2023-04-27T09:20:53.465Z,8.45
2023-04-27T09:23:32.695Z,6.13
2023-04-27T09:26:02.622Z,11.13
2023-04-27T09:28:32.428Z,7.13
2023-04-27T09:31:01.991Z,4.75
2023-04-27T09:33:34.456Z,9.18
2023-04-27T09:36:06.593Z,8.75
2023-04-27T09:38:34.493Z,7.47
2023-04-27T09:41:02.028Z,8.25
2023-04-27T09:43:31.676Z,6.75
2023-04-27T09:45:59.367Z,9.70
2023-04-27T09:48:27.536Z,14.75
2023-04-27T09:50:54.641Z,8.10
2023-04-27T09:53:37.619Z,7.80
2023-04-27T09:56:46.481Z,8.98
2023-04-27T09:59:34.781Z,9.25
2023-04-27T10:02:17.132Z,7.53
2023-04-27T10:05:16.996Z,9.68
2023-04-27T10:07:46.004Z,10.65
2023-04-27T10:10:21.243Z,6.70
2023-04-27T10:13:01.234Z,9.40
2023-04-27T10:15:30.445Z,12.00
2023-04-27T10:18:04.761Z,6.88
2023-04-27T10:20:35.123Z,7.47
2023-04-27T10:23:02.862Z,8.77
2023-04-27T10:25:38.447Z,6.72
2023-04-27T10:28:08.017Z,5.47
2023-04-27T10:30:37.909Z,7.40
2023-04-27T10:33:10.614Z,7.38
2023-04-27T10:35:53.635Z,3.75
2023-04-27T10:38:27.733Z,7.13
2023-04-27T10:40:57.060Z,5.10
2023-04-27T10:43:29.630Z,8.02
2023-04-27T10:46:16.394Z,7.15
2023-04-27T10:48:44.979Z,7.60
2023-04-27T10:51:17.436Z,9.57
2023-04-27T10:53:45.586Z,8.32
2023-04-27T10:56:12.803Z,4.25
2023-04-27T10:58:48.920Z,4.75
2023-04-27T11:01:27.919Z,3.90
2023-04-27T11:03:59.775Z,4.65
2023-04-27T11:06:28.932Z,6.60
2023-04-27T11:08:57.185Z,6.90
2023-04-27T11:11:25.234Z,8.43
2023-04-27T11:13:56.076Z,6.55
2023-04-27T11:16:24.450Z,5.13
2023-04-27T11:18:51.707Z,7.68
2023-04-27T11:21:21.912Z,8.00
2023-04-27T11:23:49.352Z,8.63
2023-04-27T11:26:17.915Z,4.35
2023-04-27T11:29:14.248Z,9.90
2023-04-27T11:31:49.133Z,4.30
2023-04-27T11:34:22.866Z,3.72
2023-04-27T11:39:38.169Z,5.15
2023-04-27T11:42:23.932Z,6.35
2023-04-27T11:44:58.471Z,5.50
2023-04-27T11:47:28.349Z,7.43
2023-04-27T11:50:00.786Z,4.10
2023-04-27T11:52:35.368Z,11.68
2023-04-27T11:55:04.215Z,6.30
2023-04-27T11:57:38.734Z,8.23
2023-04-27T12:00:14.540Z,4.55
2023-04-27T12:02:44.269Z,7.20
2023-04-27T12:05:13.424Z,5.72
2023-04-27T12:07:41.765Z,6.20
2023-04-27T12:10:09.410Z,7.45
2023-04-27T12:12:37.040Z,6.28
2023-04-27T12:15:04.515Z,5.32
2023-04-27T12:17:32.969Z,6.97
2023-04-27T12:19:59.954Z,3.60
2023-04-27T12:22:27.696Z,5.22
2023-04-27T12:24:54.704Z,6.13
2023-04-27T12:27:22.189Z,5.40
2023-04-27T12:29:49.206Z,3.70
2023-04-27T12:32:16.417Z,4.43
2023-04-27T12:34:43.268Z,7.97
2023-04-27T12:37:11.201Z,7.35
2023-04-27T12:39:38.630Z,6.32
2023-04-27T12:42:06.425Z,5.82
2023-04-27T12:44:33.602Z,6.25
2023-04-27T12:47:01.374Z,5.35
2023-04-27T12:49:28.253Z,6.22
2023-04-27T12:51:57.306Z,4.80
2023-04-27T12:54:24.328Z,4.25
2023-04-27T12:56:52.677Z,5.88
2023-04-27T12:59:19.739Z,4.50
2023-04-27T13:01:47.934Z,6.30
2023-04-27T13:04:21.442Z,4.75
2023-04-27T13:06:49.470Z,5.18
2023-04-27T13:09:16.947Z,3.75
2023-04-27T13:11:44.425Z,6.93
2023-04-27T13:14:13.134Z,3.95
2023-04-27T13:16:41.893Z,5.45
2023-04-27T13:19:08.957Z,5.63
2023-04-27T13:21:36.885Z,6.43
2023-04-27T13:24:03.985Z,4.38
2023-04-27T13:26:31.595Z,5.05
2023-04-27T13:28:58.932Z,7.13
2023-04-27T13:31:26.473Z,6.18
2023-04-27T13:33:53.623Z,5.57
2023-04-27T13:36:20.965Z,6.03
2023-04-27T13:38:47.859Z,5.43
2023-04-27T13:41:15.287Z,11.00
2023-04-27T13:43:43.067Z,7.30
2023-04-27T13:46:10.992Z,4.22
2023-04-27T13:48:38.098Z,4.22
2023-04-27T13:51:06.739Z,5.10
2023-04-27T13:53:33.929Z,3.17
2023-04-27T13:56:01.498Z,2.97
2023-04-27T13:58:29.238Z,5.80
2023-04-27T14:00:58.317Z,6.35
2023-04-27T14:03:25.753Z,5.85
2023-04-27T14:05:53.471Z,3.85
2023-04-27T14:08:22.114Z,8.60
2023-04-27T14:10:49.702Z,5.18
2023-04-27T14:13:18.520Z,4.55
2023-04-27T14:15:47.504Z,5.78
2023-04-27T14:18:15.787Z,7.55
2023-04-27T14:20:45.041Z,7.30
2023-04-27T14:23:11.924Z,6.70
2023-04-27T14:25:39.653Z,4.40
2023-04-27T14:28:07.009Z,3.97
2023-04-27T14:30:35.523Z,4.82
2023-04-27T14:33:03.312Z,2.78
2023-04-27T14:35:30.850Z,6.20
2023-04-27T14:38:02.366Z,3.08
2023-04-27T14:40:31.570Z,6.22
2023-04-27T14:42:59.136Z,13.75
2023-04-27T14:45:33.538Z,3.58
2023-04-27T14:48:07.779Z,6.85
2023-04-27T14:50:35.409Z,4.88
2023-04-27T14:53:03.254Z,3.53
2023-04-27T14:55:31.615Z,5.75
2023-04-27T14:57:58.525Z,5.25
2023-04-27T15:00:26.512Z,4.05
2023-04-27T15:02:54.944Z,4.07
2023-04-27T15:05:23.078Z,5.10
2023-04-27T15:07:51.399Z,6.53
2023-04-27T15:10:19.497Z,6.10
2023-04-27T15:12:46.671Z,4.32
2023-04-27T15:15:14.511Z,4.57
2023-04-27T15:17:42.504Z,5.30
2023-04-27T15:20:10.958Z,3.80
2023-04-27T15:22:37.798Z,4.65
2023-04-27T15:25:05.906Z,6.25
2023-04-27T15:27:32.865Z,6.63
2023-04-27T15:30:04.017Z,9.77
2023-04-27T15:32:32.204Z,6.88
2023-04-27T15:35:00.683Z,6.90
2023-04-27T15:37:29.482Z,7.90
2023-04-27T15:39:57.385Z,5.70
2023-04-27T15:42:25.130Z,6.07
2023-04-27T15:44:53.286Z,6.68
2023-04-27T15:47:20.319Z,7.50
2023-04-27T15:49:56.765Z,5.95
2023-04-27T15:52:26.504Z,7.60
2023-04-27T15:54:54.478Z,7.32
2023-04-27T15:57:21.631Z,6.43
2023-04-27T15:59:48.947Z,9.82
2023-04-27T16:02:16.323Z,7.05
2023-04-27T16:04:43.822Z,5.68
2023-04-27T16:07:10.936Z,7.95
2023-04-27T16:09:39.083Z,5.03
2023-04-27T16:12:06.298Z,8.13
2023-04-27T16:14:33.858Z,7.82
2023-04-27T16:17:04.032Z,8.73
2023-04-27T16:19:31.524Z,10.48
2023-04-27T16:21:58.455Z,8.57
2023-04-27T16:24:31.266Z,6.85
2023-04-27T16:26:59.178Z,6.15
2023-04-27T16:29:26.393Z,7.30
2023-04-27T16:31:53.606Z,12.82
2023-04-27T16:34:20.925Z,8.25
2023-04-27T16:36:49.914Z,10.75
2023-04-27T16:39:19.438Z,7.35
2023-04-27T16:41:47.326Z,8.88
2023-04-27T16:44:15.785Z,9.18
2023-04-27T16:46:43.430Z,11.02
2023-04-27T16:49:10.791Z,6.55
2023-04-27T16:51:38.215Z,8.27
2023-04-27T16:54:06.222Z,6.43
2023-04-27T16:56:35.937Z,6.32
2023-04-27T16:59:05.235Z,7.60
2023-04-27T17:01:32.814Z,8.90
2023-04-27T17:04:02.261Z,6.20
2023-04-27T17:06:30.083Z,8.20
2023-04-27T17:08:58.729Z,7.88
2023-04-27T17:11:26.639Z,10.95
2023-04-27T17:13:54.414Z,6.68
2023-04-27T17:16:21.943Z,8.30
2023-04-27T17:18:49.671Z,9.40
2023-04-27T17:21:17.494Z,9.07
2023-04-27T17:23:48.237Z,10.98
2023-04-27T17:26:19.982Z,8.07
2023-04-27T17:28:49.452Z,8.65
2023-04-27T17:31:17.859Z,7.97
2023-04-27T17:33:46.018Z,13.57
2023-04-27T17:36:13.205Z,6.78
2023-04-27T17:38:40.834Z,7.97
2023-04-27T17:41:08.047Z,4.55
2023-04-27T17:43:37.654Z,7.00
2023-04-27T17:46:10.406Z,9.57
2023-04-27T17:48:38.092Z,11.65
2023-04-27T17:51:05.142Z,7.55
2023-04-27T17:53:32.895Z,7.13
2023-04-27T17:56:00.306Z,5.57
2023-04-27T17:58:28.112Z,8.98
2023-04-27T18:00:55.500Z,8.63
2023-04-27T18:03:23.771Z,13.27
2023-04-27T18:05:51.543Z,8.10
2023-04-27T18:08:19.383Z,7.03
2023-04-27T18:10:46.945Z,8.30
2023-04-27T18:13:14.507Z,9.02
2023-04-27T18:15:41.438Z,9.45
2023-04-27T18:18:09.013Z,10.50
2023-04-27T18:20:36.755Z,9.10
2023-04-27T18:23:04.211Z,5.68
2023-04-27T18:25:32.102Z,12.07
2023-04-27T18:27:59.571Z,10.60
2023-04-27T18:30:26.694Z,10.25
2023-04-27T18:32:54.473Z,8.73
2023-04-27T18:35:22.087Z,10.50
2023-04-27T18:37:49.868Z,12.38
2023-04-27T18:40:21.308Z,10.30
2023-04-27T18:42:49.512Z,8.98
2023-04-27T18:45:16.724Z,14.23
2023-04-27T18:47:44.904Z,7.72
2023-04-27T18:50:17.330Z,10.98
2023-04-27T18:52:45.665Z,14.35
2023-04-27T18:55:14.269Z,7.90
2023-04-27T18:57:42.030Z,8.50
2023-04-27T19:00:11.434Z,11.57
2023-04-27T19:02:39.718Z,8.75
2023-04-27T19:05:13.141Z,11.07
2023-04-27T19:07:41.592Z,13.20
2023-04-27T19:10:09.584Z,14.07
2023-04-27T19:12:37.710Z,9.63
2023-04-27T19:15:05.239Z,13.02
2023-04-27T19:17:33.363Z,13.30
2023-04-27T19:20:00.676Z,16.13
2023-04-27T19:22:29.651Z,15.75
2023-04-27T19:24:57.004Z,12.52
2023-04-27T19:27:25.407Z,15.98
2023-04-27T19:29:57.874Z,9.95
2023-04-27T19:32:29.381Z,15.52
2023-04-27T19:34:57.971Z,15.13
2023-04-27T19:37:26.239Z,14.18
2023-04-27T19:39:54.563Z,17.27
2023-04-27T19:42:25.441Z,17.13
2023-04-27T19:44:53.551Z,16.48
2023-04-27T19:47:21.297Z,18.77
2023-04-27T19:49:48.287Z,18.08
2023-04-27T19:52:15.857Z,18.77
2023-04-27T19:54:42.977Z,19.63
2023-04-27T19:57:10.704Z,15.02
2023-04-27T19:59:38.194Z,17.98
2023-04-27T20:02:05.966Z,19.33
2023-04-27T20:04:33.476Z,16.88
2023-04-27T20:07:04.323Z,17.75
2023-04-27T20:09:33.177Z,22.23
2023-04-27T20:12:00.751Z,22.90
2023-04-27T20:14:30.166Z,19.75
2023-04-27T20:16:58.084Z,18.05
2023-04-27T20:19:25.319Z,22.70
2023-04-27T20:21:52.825Z,21.95
2023-04-27T20:24:20.187Z,23.42
2023-04-27T20:26:47.350Z,18.70
2023-04-27T20:29:15.095Z,18.73
2023-04-27T20:31:42.482Z,19.58
2023-04-27T20:34:09.517Z,17.52
2023-04-27T20:36:36.810Z,23.23
2023-04-27T20:39:05.618Z,22.77
2023-04-27T20:41:35.843Z,24.10
2023-04-27T20:44:03.328Z,21.27
2023-04-27T20:46:31.199Z,19.20
2023-04-27T20:48:58.221Z,16.88
2023-04-27T20:51:26.342Z,21.42
2023-04-27T20:53:53.864Z,22.33
2023-04-27T20:56:21.298Z,19.95
2023-04-27T20:58:48.863Z,23.25
2023-04-27T21:01:16.953Z,18.85
2023-04-27T21:03:43.921Z,22.75
2023-04-27T21:06:11.485Z,29.75
2023-04-27T21:08:38.845Z,29.20
2023-04-27T21:11:07.601Z,38.90
2023-04-27T21:13:35.580Z,37.45
2023-04-27T21:16:04.030Z,30.65
2023-04-27T21:18:31.345Z,27.73
2023-04-27T21:20:59.254Z,38.47
2023-04-27T21:23:26.230Z,27.38
2023-04-27T21:25:54.707Z,29.30
2023-04-27T21:28:21.619Z,33.97
2023-04-27T21:30:49.335Z,23.73
2023-04-27T21:33:17.288Z,26.70
2023-04-27T21:35:45.552Z,28.50
2023-04-27T21:38:12.489Z,25.00
2023-04-27T21:40:40.860Z,26.80
2023-04-27T21:43:08.139Z,21.70
2023-04-27T21:45:36.095Z,27.02
2023-04-27T21:48:03.342Z,22.58
2023-04-27T21:50:30.913Z,23.25
2023-04-27T21:52:57.858Z,25.42
2023-04-27T21:55:25.021Z,25.08
2023-04-27T21:57:52.248Z,24.52
2023-04-27T22:00:19.867Z,26.88
2023-04-27T22:02:48.528Z,32.85
2023-04-27T22:05:16.520Z,19.30
2023-04-27T22:07:46.128Z,28.63
2023-04-27T22:10:13.589Z,20.13
2023-04-27T22:12:40.497Z,25.90
2023-04-27T22:15:08.399Z,26.13
2023-04-27T22:17:35.688Z,22.20
2023-04-27T22:20:05.145Z,24.70
2023-04-27T22:22:32.426Z,25.38
2023-04-27T22:24:59.664Z,23.02
2023-04-27T22:27:35.174Z,24.70
2023-04-27T22:30:06.834Z,21.67
2023-04-27T22:32:34.053Z,24.85
2023-04-27T22:35:01.906Z,22.67
2023-04-27T22:37:29.740Z,28.15
2023-04-27T22:39:57.172Z,27.00
2023-04-27T22:42:24.396Z,25.52
2023-04-27T22:44:51.686Z,21.88
2023-04-27T22:47:18.533Z,26.08
2023-04-27T22:49:46.859Z,20.15
2023-04-27T22:52:14.295Z,21.35
2023-04-27T22:54:42.179Z,29.30
2023-04-27T22:57:09.130Z,25.42
2023-04-27T22:59:36.579Z,28.20
2023-04-27T23:02:03.881Z,23.85
2023-04-27T23:04:31.174Z,24.27
2023-04-27T23:06:59.003Z,22.15
2023-04-27T23:09:27.018Z,26.52
2023-04-27T23:11:55.007Z,26.83
2023-04-27T23:14:22.648Z,24.48
2023-04-27T23:16:49.802Z,24.15
2023-04-27T23:19:17.447Z,23.05
2023-04-27T23:21:44.351Z,21.02
2023-04-27T23:24:11.941Z,27.33
2023-04-27T23:26:38.923Z,28.02
2023-04-27T23:29:06.272Z,24.98
2023-04-27T23:31:33.398Z,24.05
2023-04-27T23:34:01.273Z,36.45
2023-04-27T23:36:28.245Z,27.30
2023-04-27T23:38:55.699Z,27.23
2023-04-27T23:41:23.559Z,28.13
2023-04-27T23:43:51.182Z,24.92
2023-04-27T23:46:18.089Z,28.00
2023-04-27T23:48:46.202Z,24.67
2023-04-27T23:51:13.277Z,26.75
2023-04-27T23:53:40.770Z,28.35
2023-04-27T23:56:19.225Z,27.30
2023-04-27T23:58:46.897Z,24.73
